Time;durP1;ratioP1;P1;durP2;ratioP2;P2;SDS_P1;SDS_P2;PMS_P1;PMS_P2;Temp;Humidity;BMP_temperature;BMP_pressure;BME280_temperature;BME280_humidity;BME280_pressure;Samples;Min_cycle;Max_cycle;Signal;HPM_P1;HPM_P2
2021/11/05 00:00:47;;;;;;;2.80;0.70;;;;;;;8.74;67.61;99581.44;113962;1190;25054;-59
2021/11/05 00:03:18;;;;;;;3.80;0.70;;;;;;;8.72;67.61;99589.77;114123;1194;25080;-56
2021/11/05 00:05:49;;;;;;;3.00;0.70;;;;;;;8.72;67.63;99591.54;114039;1189;25020;-59
2021/11/05 00:08:23;;;;;;;3.00;0.60;;;;;;;8.72;67.52;99594.98;114020;1196;22431;-59
2021/11/05 00:10:53;;;;;;;2.00;0.60;;;;;;;8.71;67.57;99597.54;114057;1195;22438;-60
2021/11/05 00:13:24;;;;;;;2.70;0.60;;;;;;;8.71;67.51;99601.44;113956;1196;25060;-56
2021/11/05 00:15:55;;;;;;;2.40;0.60;;;;;;;8.70;67.55;99603.95;113944;1189;24079;-58
2021/11/05 00:18:26;;;;;;;3.50;0.90;;;;;;;8.70;67.52;99603.50;113949;1190;24078;-58
2021/11/05 00:20:57;;;;;;;4.80;0.80;;;;;;;8.70;67.64;99608.45;113953;1196;22423;-58
2021/11/05 00:23:28;;;;;;;3.80;0.70;;;;;;;8.69;67.72;99615.95;113926;1196;22426;-58
2021/11/05 00:25:58;;;;;;;4.60;0.90;;;;;;;8.68;67.74;99621.66;114020;1195;22422;-61
2021/11/05 00:28:30;;;;;;;3.70;0.70;;;;;;;8.67;67.70;99624.29;113947;1195;24010;-60
2021/11/05 00:31:01;;;;;;;3.50;0.80;;;;;;;8.66;67.71;99630.90;114034;1190;23177;-56
2021/11/05 00:33:32;;;;;;;4.40;1.10;;;;;;;8.65;67.65;99632.00;114058;1195;23093;-57
2021/11/05 00:36:04;;;;;;;9.60;1.00;;;;;;;8.64;67.70;99635.42;114027;1195;24009;-56
2021/11/05 00:38:36;;;;;;;5.50;0.90;;;;;;;8.62;67.72;99636.80;114098;1196;22550;-58
2021/11/05 00:41:06;;;;;;;3.90;0.90;;;;;;;8.61;67.71;99640.58;114046;1196;23612;-59
2021/11/05 00:43:38;;;;;;;4.60;1.00;;;;;;;8.59;67.84;99648.84;114059;1190;22436;-56
2021/11/05 00:46:09;;;;;;;2.60;0.80;;;;;;;8.59;67.91;99649.04;113984;1190;22422;-54
2021/11/05 00:48:40;;;;;;;2.90;0.70;;;;;;;8.58;67.71;99651.80;113996;1195;23750;-57
2021/11/05 00:51:10;;;;;;;6.50;1.00;;;;;;;8.57;67.70;99658.46;114183;1195;23828;-56
2021/11/05 00:53:41;;;;;;;5.40;0.80;;;;;;;8.57;67.72;99662.25;114013;1196;22536;-58
2021/11/05 00:56:12;;;;;;;3.40;0.70;;;;;;;8.57;67.77;99671.86;114063;1190;23272;-58
2021/11/05 00:58:44;;;;;;;3.90;0.70;;;;;;;8.56;67.84;99679.09;114058;1196;25271;-58
2021/11/05 01:01:15;;;;;;;4.30;1.00;;;;;;;8.55;67.76;99679.31;114118;1196;24905;-57
2021/11/05 01:03:46;;;;;;;2.50;0.70;;;;;;;8.54;67.74;99683.30;113964;1196;22427;-57
2021/11/05 01:06:18;;;;;;;3.90;0.90;;;;;;;8.54;67.72;99684.92;113915;1190;24127;-57
2021/11/05 01:08:49;;;;;;;4.30;1.00;;;;;;;8.53;67.72;99684.44;114020;1195;22437;-57
2021/11/05 01:11:20;;;;;;;7.40;1.20;;;;;;;8.53;67.73;99684.98;113983;1190;22429;-59
2021/11/05 01:13:51;;;;;;;3.40;0.80;;;;;;;8.53;67.80;99688.54;114328;1196;22412;-57
2021/11/05 01:16:22;;;;;;;3.50;0.80;;;;;;;8.53;67.77;99686.81;114082;1196;22452;-58
2021/11/05 01:18:53;;;;;;;4.20;0.80;;;;;;;8.52;67.67;99687.25;114028;1196;22464;-58
2021/11/05 01:21:24;;;;;;;5.20;1.10;;;;;;;8.53;67.78;99686.10;113971;1195;22439;-58
2021/11/05 01:23:55;;;;;;;4.20;1.10;;;;;;;8.52;67.84;99683.98;114009;1195;22412;-57
2021/11/05 01:26:26;;;;;;;5.50;1.00;;;;;;;8.53;67.63;99689.71;114111;1196;25030;-57
2021/11/05 01:28:57;;;;;;;6.00;1.00;;;;;;;8.54;67.90;99692.36;114112;1196;22432;-55
2021/11/05 01:31:28;;;;;;;4.70;0.90;;;;;;;8.55;67.85;99697.02;113950;1196;24450;-57
2021/11/05 01:34:00;;;;;;;6.40;1.20;;;;;;;8.55;67.79;99703.30;114033;1195;25215;-59
2021/11/05 01:36:32;;;;;;;5.30;1.00;;;;;;;8.56;67.85;99704.98;113940;1195;25337;-58
2021/11/05 01:39:03;;;;;;;3.50;1.00;;;;;;;8.56;67.80;99706.05;113916;1196;22450;-57
2021/11/05 01:41:37;;;;;;;4.50;0.70;;;;;;;8.56;67.91;99706.66;113996;1196;24043;-57
2021/11/05 01:44:08;;;;;;;3.00;0.80;;;;;;;8.56;67.74;99707.61;114081;1196;25108;-59
2021/11/05 01:46:42;;;;;;;3.30;0.80;;;;;;;8.56;67.73;99707.47;113987;1191;22422;-57
2021/11/05 01:49:14;;;;;;;4.10;1.00;;;;;;;8.56;67.70;99715.50;113940;1190;22433;-59
2021/11/05 01:51:46;;;;;;;4.90;1.00;;;;;;;8.56;67.64;99714.55;114021;1195;22439;-58
2021/11/05 01:54:18;;;;;;;5.00;1.10;;;;;;;8.55;67.64;99713.00;114061;1174;24843;-59
2021/11/05 01:56:49;;;;;;;7.10;1.20;;;;;;;8.55;67.78;99720.61;114010;1173;23964;-57
2021/11/05 01:59:27;;;;;;;4.50;0.90;;;;;;;8.55;67.76;99718.88;114076;1195;22905;-58
2021/11/05 02:02:00;;;;;;;6.30;1.10;;;;;;;8.55;67.52;99723.17;114183;1194;22710;-57
2021/11/05 02:04:31;;;;;;;6.30;1.20;;;;;;;8.54;67.51;99724.89;114290;1190;22432;-58
2021/11/05 02:07:03;;;;;;;6.30;1.10;;;;;;;8.54;67.57;99727.98;114062;1196;22426;-57
2021/11/05 02:09:37;;;;;;;4.90;1.10;;;;;;;8.54;67.40;99733.48;114114;1194;22424;-55
2021/11/05 02:12:11;;;;;;;2.80;0.70;;;;;;;8.53;67.42;99735.58;113884;1190;22799;-58
2021/11/05 02:14:44;;;;;;;4.40;1.10;;;;;;;8.53;67.59;99735.67;114086;1195;23102;-57
2021/11/05 02:17:15;;;;;;;5.20;1.10;;;;;;;8.52;67.54;99738.20;114054;1196;24147;-57
2021/11/05 02:19:46;;;;;;;5.30;1.00;;;;;;;8.51;67.66;99741.61;114032;1196;26304;-58
2021/11/05 02:22:18;;;;;;;4.50;1.10;;;;;;;8.48;67.52;99747.45;114101;1195;27063;-56
2021/11/05 02:24:49;;;;;;;6.30;1.10;;;;;;;8.43;67.55;99750.42;114296;1189;23583;-56
2021/11/05 02:27:20;;;;;;;5.60;1.10;;;;;;;8.39;67.67;99752.25;114026;1196;22412;-57
2021/11/05 02:29:51;;;;;;;4.70;1.20;;;;;;;8.34;67.72;99750.67;114029;1196;22567;-55
2021/11/05 02:32:22;;;;;;;5.80;1.40;;;;;;;8.29;67.66;99753.07;113962;1196;24075;-58
2021/11/05 02:34:53;;;;;;;5.50;1.10;;;;;;;8.24;67.67;99757.13;114030;1195;24078;-60
2021/11/05 02:37:27;;;;;;;5.40;1.30;;;;;;;8.18;67.64;99750.80;114034;1195;22442;-59
2021/11/05 02:39:59;;;;;;;4.70;1.10;;;;;;;8.12;67.89;99753.96;114049;1194;24071;-57
2021/11/05 02:42:30;;;;;;;6.80;2.00;;;;;;;8.06;67.79;99762.98;114004;1196;22503;-57
2021/11/05 02:45:01;;;;;;;5.50;1.30;;;;;;;8.01;67.88;99769.54;114086;1190;23837;-59
2021/11/05 02:47:32;;;;;;;8.30;1.60;;;;;;;7.97;68.08;99774.30;114033;1195;22420;-57
2021/11/05 02:50:05;;;;;;;5.60;1.50;;;;;;;7.94;68.15;99785.40;114021;1195;22457;-57
2021/11/05 02:52:37;;;;;;;5.90;1.40;;;;;;;7.92;68.17;99791.46;114116;1195;22443;-59
2021/11/05 02:55:11;;;;;;;5.30;1.30;;;;;;;7.88;68.19;99794.33;114017;1195;22540;-56
2021/11/05 02:57:42;;;;;;;7.10;1.40;;;;;;;7.85;68.27;99792.80;114006;1196;25105;-57
2021/11/05 03:00:15;;;;;;;9.30;1.70;;;;;;;7.83;68.39;99796.23;113970;1195;22419;-58
2021/11/05 03:02:46;;;;;;;7.90;1.50;;;;;;;7.82;68.36;99801.30;114145;1196;22438;-57
2021/11/05 03:05:17;;;;;;;12.00;1.60;;;;;;;7.81;68.30;99804.05;114115;1196;23123;-58
2021/11/05 03:07:48;;;;;;;5.00;1.20;;;;;;;7.80;68.58;99806.86;114026;1188;25217;-57
2021/11/05 03:10:19;;;;;;;5.70;1.40;;;;;;;7.79;68.50;99806.77;113833;1196;22408;-59
2021/11/05 03:12:50;;;;;;;8.50;1.70;;;;;;;7.78;68.50;99805.47;113921;1195;22426;-58
2021/11/05 03:15:21;;;;;;;9.30;1.80;;;;;;;7.77;68.51;99809.83;113969;1195;22410;-58
2021/11/05 03:17:53;;;;;;;7.00;1.40;;;;;;;7.75;68.56;99816.81;113903;1189;22446;-56
2021/11/05 03:20:25;;;;;;;6.70;1.70;;;;;;;7.74;68.60;99812.42;114105;1190;22430;-57
2021/11/05 03:22:56;;;;;;;10.30;2.00;;;;;;;7.71;68.55;99812.93;114058;1195;22445;-58
2021/11/05 03:25:27;;;;;;;7.40;1.40;;;;;;;7.69;68.67;99814.34;114088;1195;22457;-57
2021/11/05 03:27:58;;;;;;;6.00;1.40;;;;;;;7.66;68.66;99815.89;114035;1196;24010;-57
2021/11/05 03:30:29;;;;;;;6.80;1.40;;;;;;;7.64;68.79;99816.95;114006;1196;23994;-59
2021/11/05 03:33:00;;;;;;;6.20;1.50;;;;;;;7.62;68.81;99824.27;114082;1196;22429;-58
2021/11/05 03:35:31;;;;;;;5.90;1.50;;;;;;;7.62;68.81;99828.45;113978;1195;23750;-58
2021/11/05 03:38:01;;;;;;;6.20;1.30;;;;;;;7.62;68.86;99831.09;114001;1195;22434;-57
2021/11/05 03:40:33;;;;;;;7.00;1.70;;;;;;;7.64;68.85;99839.10;114083;1190;23763;-58
2021/11/05 03:43:04;;;;;;;6.10;1.50;;;;;;;7.64;68.86;99838.11;114110;1196;25048;-57
2021/11/05 03:45:36;;;;;;;7.60;1.80;;;;;;;7.65;68.88;99842.59;114089;1189;25748;-58
2021/11/05 03:48:09;;;;;;;8.30;1.60;;;;;;;7.67;68.84;99849.35;114085;1190;25485;-57
2021/11/05 03:50:40;;;;;;;7.30;1.70;;;;;;;7.68;68.88;99851.29;114010;1196;23799;-56
2021/11/05 03:53:11;;;;;;;6.50;1.70;;;;;;;7.69;68.84;99854.86;114012;1195;25202;-57
2021/11/05 03:55:41;;;;;;;7.30;1.90;;;;;;;7.72;68.89;99862.85;114010;1196;22445;-59
2021/11/05 03:58:12;;;;;;;7.30;1.40;;;;;;;7.74;68.86;99865.79;113985;1174;22724;-58
2021/11/05 04:00:44;;;;;;;6.10;1.60;;;;;;;7.75;68.83;99870.48;114007;1195;22426;-54
2021/11/05 04:03:15;;;;;;;7.40;2.10;;;;;;;7.77;68.80;99869.96;114032;1190;25001;-58
2021/11/05 04:05:46;;;;;;;8.40;1.80;;;;;;;7.81;68.78;99871.00;113983;1196;25111;-58
2021/11/05 04:08:17;;;;;;;5.10;1.30;;;;;;;7.83;68.75;99875.50;113973;1180;22595;-57
2021/11/05 04:10:48;;;;;;;5.50;1.50;;;;;;;7.86;68.69;99877.59;113988;1196;22740;-60
2021/11/05 04:13:19;;;;;;;9.30;1.70;;;;;;;7.86;68.77;99880.42;114008;1190;22442;-58
2021/11/05 04:15:50;;;;;;;6.40;1.50;;;;;;;7.88;68.74;99880.27;114005;1196;22417;-57
2021/11/05 04:18:22;;;;;;;5.90;1.40;;;;;;;7.90;68.68;99882.84;114065;1195;23773;-59
2021/11/05 04:20:53;;;;;;;5.00;1.40;;;;;;;7.91;68.68;99881.91;113983;1196;26286;-58
2021/11/05 04:23:24;;;;;;;5.40;1.50;;;;;;;7.92;68.76;99884.73;113815;1190;22416;-59
2021/11/05 04:25:55;;;;;;;7.20;1.30;;;;;;;7.93;68.73;99879.85;113739;1195;22430;-58
2021/11/05 04:28:27;;;;;;;7.70;1.50;;;;;;;7.93;68.68;99886.83;113921;1196;24082;-57
2021/11/05 04:30:57;;;;;;;6.90;1.60;;;;;;;7.94;68.65;99892.75;114069;1196;25102;-58
2021/11/05 04:33:31;;;;;;;4.50;1.40;;;;;;;7.95;68.71;99897.79;113939;1190;22403;-59
2021/11/05 04:36:04;;;;;;;5.90;1.60;;;;;;;7.96;68.66;99902.75;114010;1196;23801;-58
2021/11/05 04:38:35;;;;;;;6.30;1.40;;;;;;;7.97;68.76;99900.34;114103;1190;25239;-57
2021/11/05 04:41:06;;;;;;;7.70;1.50;;;;;;;7.96;68.62;99902.35;114031;1196;22438;-61
2021/11/05 04:43:38;;;;;;;6.10;1.40;;;;;;;7.96;68.61;99909.58;113975;1196;22884;-59
2021/11/05 04:46:09;;;;;;;6.40;1.40;;;;;;;7.96;68.57;99914.17;114028;1189;26284;-58
2021/11/05 04:48:39;;;;;;;5.10;1.40;;;;;;;7.96;68.56;99915.45;114096;1195;22419;-58
2021/11/05 04:51:10;;;;;;;6.90;1.60;;;;;;;7.96;68.49;99918.13;113996;1190;25739;-60
2021/11/05 04:53:41;;;;;;;5.80;1.50;;;;;;;7.97;68.58;99921.98;113782;1189;22439;-60
2021/11/05 04:56:12;;;;;;;6.10;1.60;;;;;;;7.97;68.54;99925.27;114001;1196;22979;-57
2021/11/05 04:58:43;;;;;;;5.80;1.50;;;;;;;7.96;68.47;99928.17;114061;1196;22459;-60
2021/11/05 05:01:14;;;;;;;6.10;1.30;;;;;;;7.96;68.65;99929.90;113900;1189;24069;-58
2021/11/05 05:03:45;;;;;;;5.40;1.60;;;;;;;7.96;68.60;99928.94;114016;1190;25635;-58
2021/11/05 05:06:16;;;;;;;4.20;1.20;;;;;;;7.96;68.66;99938.23;114073;1196;22448;-61
2021/11/05 05:08:46;;;;;;;8.10;1.50;;;;;;;7.97;68.74;99941.38;114002;1196;22425;-60
2021/11/05 05:11:17;;;;;;;5.70;1.20;;;;;;;7.96;68.67;99949.60;113659;1197;22429;-59
2021/11/05 05:13:48;;;;;;;5.80;1.60;;;;;;;7.96;68.69;99948.73;113998;1196;25014;-59
2021/11/05 05:16:19;;;;;;;7.30;1.50;;;;;;;7.96;68.64;99955.06;114117;1196;22427;-62
2021/11/05 05:18:50;;;;;;;7.50;1.60;;;;;;;7.97;68.72;99957.03;113943;1196;23616;-63
2021/11/05 05:21:21;;;;;;;7.40;1.60;;;;;;;7.96;68.73;99959.20;113846;1196;25221;-62
2021/11/05 05:23:52;;;;;;;6.00;1.50;;;;;;;7.97;68.71;99965.50;113897;1190;23481;-60
2021/11/05 05:26:23;;;;;;;8.50;1.80;;;;;;;7.96;68.68;99967.23;114164;1189;22432;-60
2021/11/05 05:28:53;;;;;;;7.10;1.90;;;;;;;7.95;68.68;99974.67;114056;1190;25045;-58
2021/11/05 05:31:24;;;;;;;7.00;1.80;;;;;;;7.94;68.77;99979.41;113705;1196;22479;-67
2021/11/05 05:33:55;;;;;;;7.30;1.60;;;;;;;7.93;68.76;99983.64;113537;1197;25212;-56
2021/11/05 05:36:26;;;;;;;9.80;2.00;;;;;;;7.93;68.81;99990.66;113632;1196;25136;-58
2021/11/05 05:38:57;;;;;;;8.00;2.00;;;;;;;7.91;68.72;99993.59;113319;1190;22430;-58
2021/11/05 05:41:27;;;;;;;7.00;2.00;;;;;;;7.89;68.80;99996.69;113286;1190;25405;-58
2021/11/05 05:43:59;;;;;;;6.90;2.10;;;;;;;7.88;68.86;99999.98;113425;1196;25007;-58
2021/11/05 05:46:30;;;;;;;7.50;1.70;;;;;;;7.87;68.84;99997.58;113268;1190;22446;-58
2021/11/05 05:49:01;;;;;;;6.90;1.90;;;;;;;7.87;68.90;99999.00;113232;1196;22417;-60
2021/11/05 05:51:33;;;;;;;8.00;1.90;;;;;;;7.87;68.83;100004.59;113171;1190;26326;-59
2021/11/05 05:54:05;;;;;;;7.50;1.30;;;;;;;7.86;68.74;100008.58;113503;1189;22432;-58
2021/11/05 05:56:37;;;;;;;7.90;1.70;;;;;;;7.87;68.89;100011.88;113381;1195;22597;-58
2021/11/05 05:59:09;;;;;;;8.60;1.60;;;;;;;7.87;68.90;100015.85;113503;1189;23735;-60
2021/11/05 06:01:40;;;;;;;5.50;1.40;;;;;;;7.86;68.85;100017.10;113211;1196;22435;-60
2021/11/05 06:04:11;;;;;;;7.90;1.70;;;;;;;7.85;68.93;100022.20;113155;1195;22398;-58
2021/11/05 06:06:42;;;;;;;7.90;1.60;;;;;;;7.84;68.87;100031.46;113200;1189;22426;-59
2021/11/05 06:09:13;;;;;;;5.80;1.30;;;;;;;7.84;68.87;100034.84;113396;1196;25431;-58
2021/11/05 06:11:44;;;;;;;9.20;1.90;;;;;;;7.83;68.82;100039.95;113237;1195;25333;-60
2021/11/05 06:14:16;;;;;;;10.40;1.80;;;;;;;7.81;68.84;100045.64;113311;1196;26487;-65
2021/11/05 06:16:47;;;;;;;14.30;2.10;;;;;;;7.82;68.95;100051.33;113366;1189;24192;-61
2021/11/05 06:19:18;;;;;;;9.30;1.70;;;;;;;7.83;68.96;100057.16;113212;1196;22421;-59
2021/11/05 06:21:48;;;;;;;9.90;1.90;;;;;;;7.83;68.98;100059.08;113200;1190;22439;-61
2021/11/05 06:24:19;;;;;;;5.60;1.50;;;;;;;7.84;68.96;100070.46;113273;1190;25303;-65
2021/11/05 06:26:50;;;;;;;7.00;1.70;;;;;;;7.85;69.05;100078.58;113231;1196;22410;-58
2021/11/05 06:29:21;;;;;;;8.80;1.80;;;;;;;7.86;69.07;100087.76;113226;1190;22430;-62
2021/11/05 06:31:52;;;;;;;7.00;1.70;;;;;;;7.87;69.14;100094.70;113315;1196;24179;-61
2021/11/05 06:34:22;;;;;;;6.40;1.70;;;;;;;7.87;69.13;100108.41;113212;1196;22418;-60
2021/11/05 06:36:54;;;;;;;6.20;1.60;;;;;;;7.88;69.16;100115.45;113236;1190;24057;-62
2021/11/05 06:39:25;;;;;;;7.20;2.00;;;;;;;7.87;69.20;100121.53;113242;1196;24154;-60
2021/11/05 06:41:57;;;;;;;7.50;1.70;;;;;;;7.87;69.28;100122.89;113343;1196;22475;-60
2021/11/05 06:44:28;;;;;;;8.90;1.60;;;;;;;7.87;69.37;100128.20;113338;1189;22423;-60
2021/11/05 06:46:59;;;;;;;6.20;1.90;;;;;;;7.88;69.32;100133.98;113262;1196;22518;-60
2021/11/05 06:49:30;;;;;;;7.80;2.10;;;;;;;7.88;69.43;100135.55;113282;1196;22418;-62
2021/11/05 06:52:01;;;;;;;8.60;2.10;;;;;;;7.86;69.46;100134.20;113296;1196;25085;-62
2021/11/05 06:54:31;;;;;;;5.90;1.70;;;;;;;7.86;69.37;100135.96;113292;1190;25057;-59
2021/11/05 06:57:03;;;;;;;7.40;1.70;;;;;;;7.86;69.38;100137.94;113215;1196;22421;-60
2021/11/05 06:59:38;;;;;;;6.50;1.60;;;;;;;7.86;69.53;100147.08;113294;1196;22430;-61
2021/11/05 07:02:09;;;;;;;11.30;2.20;;;;;;;7.86;69.56;100147.58;113349;1196;25331;-61
2021/11/05 07:04:40;;;;;;;8.90;1.90;;;;;;;7.86;69.64;100154.30;113273;1196;22442;-59
2021/11/05 07:07:12;;;;;;;9.00;2.30;;;;;;;7.86;69.71;100161.94;113219;1196;25220;-59
2021/11/05 07:09:44;;;;;;;8.60;2.10;;;;;;;7.86;69.68;100169.15;113275;1196;25123;-59
2021/11/05 07:12:16;;;;;;;13.00;2.50;;;;;;;7.87;69.81;100174.13;113376;1196;23025;-60
2021/11/05 07:14:46;;;;;;;7.10;2.20;;;;;;;7.87;69.67;100176.72;115122;1195;22458;-61
2021/11/05 07:17:18;;;;;;;8.50;2.00;;;;;;;7.87;69.80;100179.97;113211;1194;25060;-59
2021/11/05 07:19:49;;;;;;;10.10;2.20;;;;;;;7.89;69.86;100187.54;113649;1194;23120;-60
2021/11/05 07:22:20;;;;;;;10.60;2.50;;;;;;;7.89;69.91;100191.55;113216;1196;22484;-60
2021/11/05 07:24:51;;;;;;;9.60;2.70;;;;;;;7.91;69.93;100198.00;113269;1196;23128;-58
2021/11/05 07:27:22;;;;;;;11.20;2.60;;;;;;;7.91;69.96;100203.79;113325;1196;22434;-60
2021/11/05 07:29:53;;;;;;;8.20;2.10;;;;;;;7.93;70.08;100207.86;113294;1196;25096;-59
2021/11/05 07:32:24;;;;;;;7.30;2.10;;;;;;;7.93;70.07;100218.23;113333;1196;25105;-61
2021/11/05 07:34:55;;;;;;;6.70;1.80;;;;;;;7.94;70.19;100219.95;113246;1196;25114;-59
2021/11/05 07:37:26;;;;;;;10.80;2.70;;;;;;;7.95;70.26;100225.72;113230;1196;25120;-60
2021/11/05 07:39:57;;;;;;;8.40;2.30;;;;;;;7.96;70.15;100228.54;113269;1189;24148;-59
2021/11/05 07:42:29;;;;;;;8.50;2.10;;;;;;;7.97;70.28;100231.34;113235;1196;22450;-62
2021/11/05 07:44:59;;;;;;;8.30;1.70;;;;;;;7.98;70.29;100240.05;113445;1196;22436;-61
2021/11/05 07:47:30;;;;;;;9.50;2.70;;;;;;;7.99;70.14;100240.96;113256;1196;22434;-60
2021/11/05 07:50:03;;;;;;;6.70;1.60;;;;;;;8.01;70.23;100238.95;113394;1181;24063;-60
2021/11/05 07:52:35;;;;;;;8.60;2.40;;;;;;;8.03;70.17;100241.67;113397;1196;22434;-61
2021/11/05 07:55:09;;;;;;;9.80;2.50;;;;;;;8.04;70.23;100248.09;113356;1196;22429;-60
2021/11/05 07:57:45;;;;;;;10.70;2.80;;;;;;;8.06;70.23;100249.14;113411;1196;25264;-60
2021/11/05 08:00:17;;;;;;;9.60;2.60;;;;;;;8.08;70.23;100247.73;113246;1196;22725;-60
2021/11/05 08:02:48;;;;;;;7.30;1.90;;;;;;;8.09;70.20;100253.47;113421;1196;24049;-62
2021/11/05 08:05:19;;;;;;;10.00;3.00;;;;;;;8.11;70.30;100256.57;113372;1196;27325;-61
2021/11/05 08:07:50;;;;;;;9.30;2.50;;;;;;;8.13;70.31;100256.02;113326;1196;25082;-60
2021/11/05 08:10:21;;;;;;;11.00;3.30;;;;;;;8.13;70.24;100259.98;113274;1196;25035;-60
2021/11/05 08:12:53;;;;;;;11.00;2.60;;;;;;;8.15;70.30;100262.70;113727;1196;23102;-61
2021/11/05 08:15:25;;;;;;;9.10;2.60;;;;;;;8.16;70.19;100273.34;113453;1190;24753;-60
2021/11/05 08:17:56;;;;;;;11.60;2.70;;;;;;;8.18;70.40;100278.98;113477;1196;25124;-59
2021/11/05 08:20:27;;;;;;;11.00;2.70;;;;;;;8.20;70.29;100279.23;113240;1190;22423;-60
2021/11/05 08:22:58;;;;;;;10.90;2.80;;;;;;;8.22;70.43;100284.73;113309;1196;22630;-60
2021/11/05 08:25:30;;;;;;;10.10;2.70;;;;;;;8.24;70.43;100292.08;113473;1196;25133;-61
2021/11/05 08:28:01;;;;;;;13.90;3.50;;;;;;;8.26;70.47;100297.83;113239;1196;22453;-60
2021/11/05 08:30:32;;;;;;;9.80;2.90;;;;;;;8.28;70.52;100300.52;113259;1190;24080;-60
2021/11/05 08:33:03;;;;;;;9.70;2.90;;;;;;;8.30;70.43;100297.83;113335;1196;25404;-61
2021/11/05 08:35:35;;;;;;;9.70;3.10;;;;;;;8.31;70.42;100301.91;113295;1190;25104;-60
2021/11/05 08:38:15;;;;;;;13.80;3.70;;;;;;;8.33;70.48;100302.45;113394;1196;24160;-61
2021/11/05 08:40:48;;;;;;;10.70;3.60;;;;;;;8.36;70.62;100305.60;113648;1196;22425;-61
2021/11/05 08:43:20;;;;;;;11.70;3.70;;;;;;;8.37;70.48;100307.67;113371;1190;26327;-60
2021/11/05 08:45:52;;;;;;;13.20;2.80;;;;;;;8.40;70.49;100311.29;113365;1196;22565;-60
2021/11/05 08:48:24;;;;;;;9.70;3.00;;;;;;;8.42;70.59;100315.95;113226;1196;22879;-60
2021/11/05 08:50:56;;;;;;;12.20;3.40;;;;;;;8.46;70.53;100320.90;113386;1196;23852;-59
2021/11/05 08:53:28;;;;;;;10.70;3.50;;;;;;;8.49;70.65;100330.31;113290;1196;25214;-61
2021/11/05 08:56:00;;;;;;;11.90;3.00;;;;;;;8.52;70.61;100337.08;113276;1180;24068;-62
2021/11/05 08:58:32;;;;;;;12.00;2.70;;;;;;;8.57;70.70;100340.05;113532;1196;25122;-60
2021/11/05 09:01:04;;;;;;;10.60;2.80;;;;;;;8.61;70.74;100346.80;113277;1196;24160;-61
2021/11/05 09:03:36;;;;;;;10.40;3.00;;;;;;;8.65;70.85;100349.95;113327;1196;22437;-62
2021/11/05 09:06:09;;;;;;;12.50;3.60;;;;;;;8.68;70.76;100352.52;113255;1196;24158;-60
2021/11/05 09:08:42;;;;;;;8.80;2.40;;;;;;;8.73;70.77;100360.29;113272;1196;22416;-61
2021/11/05 09:11:13;;;;;;;8.70;2.30;;;;;;;8.77;70.57;100359.13;113406;1196;24077;-60
2021/11/05 09:13:44;;;;;;;8.90;2.00;;;;;;;8.80;70.67;100360.96;113473;1196;22438;-62
2021/11/05 09:16:15;;;;;;;10.10;2.30;;;;;;;8.84;70.63;100365.73;113262;1196;24062;-60
2021/11/05 09:18:46;;;;;;;10.60;2.50;;;;;;;8.88;70.64;100367.23;113286;1196;24071;-59
2021/11/05 09:21:17;;;;;;;10.20;2.20;;;;;;;8.91;70.61;100373.61;113219;1196;23285;-60
2021/11/05 09:23:47;;;;;;;9.90;2.00;;;;;;;8.95;70.26;100378.07;113392;1196;22387;-59
2021/11/05 09:26:18;;;;;;;7.20;2.20;;;;;;;8.97;70.51;100379.42;113350;1196;25000;-61
2021/11/05 09:28:49;;;;;;;10.80;2.20;;;;;;;8.98;70.30;100383.66;113247;1196;22420;-60
2021/11/05 09:31:21;;;;;;;13.80;3.40;;;;;;;9.00;70.36;100387.35;113221;1196;22447;-60
2021/11/05 09:33:52;;;;;;;8.30;2.30;;;;;;;9.01;70.44;100378.44;113310;1196;25922;-59
2021/11/05 09:36:24;;;;;;;7.70;2.20;;;;;;;9.03;70.46;100382.58;113314;1188;26290;-59
2021/11/05 09:38:56;;;;;;;9.20;2.20;;;;;;;9.03;70.16;100386.95;113289;1195;22423;-60
2021/11/05 09:41:27;;;;;;;7.80;1.80;;;;;;;9.03;70.01;100385.42;113483;1195;26401;-60
2021/11/05 09:43:59;;;;;;;11.70;2.50;;;;;;;9.04;70.20;100386.05;113445;1196;22423;-59
2021/11/05 09:46:30;;;;;;;10.50;2.70;;;;;;;9.04;70.17;100390.73;113493;1196;24206;-60
2021/11/05 09:49:02;;;;;;;11.90;2.90;;;;;;;9.04;70.06;100391.44;113382;1196;25334;-60
2021/11/05 09:51:33;;;;;;;13.20;3.90;;;;;;;9.04;70.30;100394.41;113321;1190;22424;-59
2021/11/05 09:54:05;;;;;;;12.90;3.50;;;;;;;9.04;70.16;100396.88;113253;1196;22881;-59
2021/11/05 09:56:36;;;;;;;13.40;4.40;;;;;;;9.03;70.19;100403.33;113360;1195;24154;-59
2021/11/05 09:59:08;;;;;;;14.30;3.40;;;;;;;9.03;70.15;100406.98;113704;1194;22901;-59
2021/11/05 10:01:41;;;;;;;11.60;3.60;;;;;;;9.04;70.20;100408.48;113449;1195;24186;-59
2021/11/05 10:04:13;;;;;;;9.20;2.00;;;;;;;9.05;70.07;100415.84;113309;1196;23200;-60
2021/11/05 10:07:00;;;;;;;14.70;4.60;;;;;;;9.05;69.91;100418.60;113450;1196;22412;-60
2021/11/05 10:09:36;;;;;;;9.30;2.30;;;;;;;9.07;69.90;100420.67;113433;1189;22430;-60
2021/11/05 10:12:15;;;;;;;8.00;1.80;;;;;;;9.08;69.64;100422.31;113289;1196;25034;-60
2021/11/05 10:14:53;;;;;;;9.80;1.70;;;;;;;9.08;69.59;100431.69;113335;1196;22503;-60
2021/11/05 10:17:27;;;;;;;8.80;1.80;;;;;;;9.08;69.58;100435.52;113234;1190;22635;-60
2021/11/05 10:20:00;;;;;;;11.10;1.70;;;;;;;9.07;69.64;100438.17;113495;1196;22476;-59
2021/11/05 10:22:43;;;;;;;10.20;3.00;;;;;;;9.07;70.14;100439.80;113410;1196;25006;-59
2021/11/05 10:25:33;;;;;;;6.50;1.90;;;;;;;9.05;70.45;100438.09;113427;1196;22437;-61
2021/11/05 10:28:11;;;;;;;5.80;1.20;;;;;;;9.06;70.55;100441.73;113173;1196;22464;-59
2021/11/05 10:30:56;;;;;;;5.10;1.30;;;;;;;9.02;70.41;100439.02;113392;1196;22409;-60
2021/11/05 10:33:30;;;;;;;5.10;1.20;;;;;;;8.99;70.49;100444.15;113362;1196;25123;-60
2021/11/05 10:36:04;;;;;;;5.70;1.20;;;;;;;8.98;70.50;100448.17;113278;1196;24122;-60
2021/11/05 10:38:38;;;;;;;4.30;0.70;;;;;;;8.97;70.53;100447.52;113310;1196;22438;-60
2021/11/05 10:41:11;;;;;;;5.80;1.00;;;;;;;8.95;70.46;100450.77;113383;1190;22435;-60
2021/11/05 10:43:44;;;;;;;5.70;1.10;;;;;;;8.93;70.76;100454.58;113364;1196;23117;-59
2021/11/05 10:46:28;;;;;;;4.70;0.80;;;;;;;8.92;70.72;100459.96;113312;1196;26328;-60
2021/11/05 10:49:02;;;;;;;4.50;0.90;;;;;;;8.88;70.84;100462.05;113298;1196;22450;-60
2021/11/05 10:51:35;;;;;;;2.60;0.70;;;;;;;8.81;70.62;100464.54;113326;1196;22409;-61
2021/11/05 10:54:06;;;;;;;2.90;0.60;;;;;;;8.76;71.23;100478.14;113342;1196;22423;-60
2021/11/05 10:56:38;;;;;;;1.70;0.30;;;;;;;8.69;71.26;100478.95;113347;1196;23640;-60
2021/11/05 10:59:11;;;;;;;1.80;0.30;;;;;;;8.61;71.62;100482.20;113565;1189;24569;-60
2021/11/05 11:01:43;;;;;;;1.50;0.40;;;;;;;8.52;72.14;100482.02;113428;1196;25327;-60
2021/11/05 11:04:15;;;;;;;2.50;0.40;;;;;;;8.45;72.40;100483.63;113519;1190;25239;-60
2021/11/05 11:06:49;;;;;;;3.40;0.50;;;;;;;8.41;72.79;100489.55;113663;1196;22431;-59
2021/11/05 11:09:24;;;;;;;2.50;0.50;;;;;;;8.38;72.91;100486.17;113829;1195;25133;-60
2021/11/05 11:12:03;;;;;;;3.00;0.50;;;;;;;8.37;73.14;100493.13;113426;1196;22413;-60
2021/11/05 11:14:36;;;;;;;4.00;0.70;;;;;;;8.35;73.31;100488.18;113301;1195;25126;-59
2021/11/05 11:17:10;;;;;;;3.50;0.60;;;;;;;8.36;73.59;100490.70;113283;1190;22829;-60
2021/11/05 11:19:50;;;;;;;4.10;0.50;;;;;;;8.34;74.04;100495.52;113301;1196;25117;-58
2021/11/05 11:22:22;;;;;;;2.50;0.60;;;;;;;8.35;74.34;100497.17;113432;1196;23133;-60
2021/11/05 11:24:53;;;;;;;4.90;0.50;;;;;;;8.38;74.51;100498.25;113308;1196;24129;-59
2021/11/05 11:27:30;;;;;;;0.50;0.20;;;;;;;8.38;74.03;100503.33;113523;1196;22418;-59
2021/11/05 11:30:01;;;;;;;2.10;0.30;;;;;;;8.34;73.63;100505.23;113310;1189;24100;-60
2021/11/05 11:32:34;;;;;;;1.90;0.50;;;;;;;8.31;73.76;100506.09;113333;1195;25057;-59
2021/11/05 11:35:06;;;;;;;4.30;0.40;;;;;;;8.30;73.91;100509.59;113314;1196;22440;-59
2021/11/05 11:37:38;;;;;;;2.50;0.40;;;;;;;8.31;74.24;100509.57;113356;1196;25257;-60
2021/11/05 11:40:12;;;;;;;2.70;0.50;;;;;;;8.31;73.97;100513.87;113237;1196;25047;-60
2021/11/05 11:42:44;;;;;;;6.80;0.50;;;;;;;8.33;74.32;100517.29;113332;1195;25365;-59
2021/11/05 11:45:16;;;;;;;2.10;0.70;;;;;;;8.35;74.14;100514.57;113278;1196;22441;-59
2021/11/05 11:47:49;;;;;;;4.00;0.60;;;;;;;8.39;74.29;100517.02;113262;1196;22412;-59